sensor_id;sensor_type;location;lat;lon;timestamp;P1;durP1;ratioP1;P2;durP2;ratioP2
70927;SDS011;58587;53.034;18.576;2023-08-06T00:01:43;5.33;;;4.07;;
70927;SDS011;58587;53.034;18.576;2023-08-06T00:04:08;6.87;;;4.27;;
70927;SDS011;58587;53.034;18.576;2023-08-06T00:06:33;8.67;;;4.53;;
70927;SDS011;58587;53.034;18.576;2023-08-06T00:08:59;8.52;;;4.68;;
70927;SDS011;58587;53.034;18.576;2023-08-06T00:11:24;6.27;;;4.70;;
70927;SDS011;58587;53.034;18.576;2023-08-06T00:13:49;6.33;;;4.83;;
70927;SDS011;58587;53.034;18.576;2023-08-06T00:16:15;6.30;;;4.17;;
70927;SDS011;58587;53.034;18.576;2023-08-06T00:18:40;8.33;;;4.93;;
70927;SDS011;58587;53.034;18.576;2023-08-06T00:21:05;9.33;;;5.53;;
70927;SDS011;58587;53.034;18.576;2023-08-06T00:23:31;11.40;;;6.67;;
70927;SDS011;58587;53.034;18.576;2023-08-06T00:25:56;10.70;;;6.30;;
70927;SDS011;58587;53.034;18.576;2023-08-06T00:28:21;7.20;;;5.43;;
70927;SDS011;58587;53.034;18.576;2023-08-06T00:30:52;9.13;;;5.47;;
70927;SDS011;58587;53.034;18.576;2023-08-06T00:33:18;11.35;;;5.65;;
70927;SDS011;58587;53.034;18.576;2023-08-06T00:35:43;7.40;;;5.37;;
70927;SDS011;58587;53.034;18.576;2023-08-06T00:38:08;6.90;;;5.30;;
70927;SDS011;58587;53.034;18.576;2023-08-06T00:40:33;9.30;;;5.67;;
70927;SDS011;58587;53.034;18.576;2023-08-06T00:42:59;9.50;;;5.77;;
70927;SDS011;58587;53.034;18.576;2023-08-06T00:45:24;8.40;;;5.40;;
70927;SDS011;58587;53.034;18.576;2023-08-06T00:47:50;8.50;;;5.70;;
70927;SDS011;58587;53.034;18.576;2023-08-06T00:50:15;8.25;;;5.70;;
70927;SDS011;58587;53.034;18.576;2023-08-06T00:52:41;6.40;;;5.20;;
70927;SDS011;58587;53.034;18.576;2023-08-06T00:55:07;8.05;;;6.13;;
70927;SDS011;58587;53.034;18.576;2023-08-06T00:57:32;7.10;;;5.63;;
70927;SDS011;58587;53.034;18.576;2023-08-06T00:59:58;7.78;;;5.50;;
70927;SDS011;58587;53.034;18.576;2023-08-06T01:02:23;6.97;;;5.10;;
70927;SDS011;58587;53.034;18.576;2023-08-06T01:04:49;7.57;;;4.70;;
70927;SDS011;58587;53.034;18.576;2023-08-06T01:10:10;7.20;;;4.93;;
70927;SDS011;58587;53.034;18.576;2023-08-06T01:15:46;6.53;;;4.50;;
70927;SDS011;58587;53.034;18.576;2023-08-06T01:18:15;6.97;;;4.50;;
70927;SDS011;58587;53.034;18.576;2023-08-06T01:20:41;5.97;;;4.40;;
70927;SDS011;58587;53.034;18.576;2023-08-06T01:23:06;6.40;;;4.55;;
70927;SDS011;58587;53.034;18.576;2023-08-06T01:25:45;6.53;;;4.40;;
70927;SDS011;58587;53.034;18.576;2023-08-06T01:28:40;7.17;;;4.50;;
70927;SDS011;58587;53.034;18.576;2023-08-06T01:31:16;9.00;;;4.88;;
70927;SDS011;58587;53.034;18.576;2023-08-06T01:33:46;5.53;;;4.53;;
70927;SDS011;58587;53.034;18.576;2023-08-06T01:36:14;5.63;;;3.88;;
70927;SDS011;58587;53.034;18.576;2023-08-06T01:38:41;9.07;;;4.38;;
70927;SDS011;58587;53.034;18.576;2023-08-06T01:41:06;8.20;;;4.80;;
70927;SDS011;58587;53.034;18.576;2023-08-06T01:43:32;5.50;;;4.33;;
70927;SDS011;58587;53.034;18.576;2023-08-06T01:45:57;6.50;;;4.17;;
70927;SDS011;58587;53.034;18.576;2023-08-06T01:48:22;6.63;;;4.23;;
70927;SDS011;58587;53.034;18.576;2023-08-06T01:50:48;6.07;;;4.17;;
70927;SDS011;58587;53.034;18.576;2023-08-06T01:53:13;6.03;;;4.30;;
70927;SDS011;58587;53.034;18.576;2023-08-06T01:55:38;5.97;;;4.10;;
70927;SDS011;58587;53.034;18.576;2023-08-06T01:58:03;6.00;;;3.90;;
70927;SDS011;58587;53.034;18.576;2023-08-06T02:00:29;5.37;;;3.90;;
70927;SDS011;58587;53.034;18.576;2023-08-06T02:02:54;4.37;;;3.63;;
70927;SDS011;58587;53.034;18.576;2023-08-06T02:05:19;6.10;;;3.37;;
70927;SDS011;58587;53.034;18.576;2023-08-06T02:07:45;5.17;;;3.67;;
70927;SDS011;58587;53.034;18.576;2023-08-06T02:10:10;5.33;;;3.60;;
70927;SDS011;58587;53.034;18.576;2023-08-06T02:12:35;6.00;;;3.60;;
70927;SDS011;58587;53.034;18.576;2023-08-06T02:15:01;5.30;;;3.53;;
70927;SDS011;58587;53.034;18.576;2023-08-06T02:17:26;4.83;;;3.70;;
70927;SDS011;58587;53.034;18.576;2023-08-06T02:19:51;4.20;;;3.43;;
70927;SDS011;58587;53.034;18.576;2023-08-06T02:22:17;5.07;;;3.37;;
70927;SDS011;58587;53.034;18.576;2023-08-06T02:24:42;3.90;;;3.37;;
70927;SDS011;58587;53.034;18.576;2023-08-06T02:27:07;5.70;;;3.30;;
70927;SDS011;58587;53.034;18.576;2023-08-06T02:29:33;4.23;;;3.00;;
70927;SDS011;58587;53.034;18.576;2023-08-06T02:31:58;4.60;;;2.80;;
70927;SDS011;58587;53.034;18.576;2023-08-06T02:34:24;3.73;;;2.57;;
70927;SDS011;58587;53.034;18.576;2023-08-06T02:36:49;5.20;;;3.35;;
70927;SDS011;58587;53.034;18.576;2023-08-06T02:39:15;4.03;;;2.80;;
70927;SDS011;58587;53.034;18.576;2023-08-06T02:41:40;5.87;;;3.07;;
70927;SDS011;58587;53.034;18.576;2023-08-06T02:44:05;4.30;;;2.60;;
70927;SDS011;58587;53.034;18.576;2023-08-06T02:46:30;3.30;;;2.50;;
70927;SDS011;58587;53.034;18.576;2023-08-06T02:48:56;5.45;;;3.05;;
70927;SDS011;58587;53.034;18.576;2023-08-06T02:51:21;4.03;;;2.70;;
70927;SDS011;58587;53.034;18.576;2023-08-06T02:53:47;3.73;;;2.73;;
70927;SDS011;58587;53.034;18.576;2023-08-06T02:56:13;4.30;;;3.08;;
70927;SDS011;58587;53.034;18.576;2023-08-06T02:58:38;3.17;;;2.53;;
70927;SDS011;58587;53.034;18.576;2023-08-06T03:01:04;3.10;;;2.77;;
70927;SDS011;58587;53.034;18.576;2023-08-06T03:03:31;2.92;;;2.42;;
70927;SDS011;58587;53.034;18.576;2023-08-06T03:05:57;3.40;;;2.30;;
70927;SDS011;58587;53.034;18.576;2023-08-06T03:08:23;3.13;;;2.30;;
70927;SDS011;58587;53.034;18.576;2023-08-06T03:10:49;4.90;;;2.30;;
70927;SDS011;58587;53.034;18.576;2023-08-06T03:13:15;3.88;;;2.60;;
70927;SDS011;58587;53.034;18.576;2023-08-06T03:15:41;3.10;;;2.38;;
70927;SDS011;58587;53.034;18.576;2023-08-06T03:18:06;2.43;;;2.13;;
70927;SDS011;58587;53.034;18.576;2023-08-06T03:20:32;3.50;;;2.57;;
70927;SDS011;58587;53.034;18.576;2023-08-06T03:22:57;4.00;;;2.50;;
70927;SDS011;58587;53.034;18.576;2023-08-06T03:25:23;3.00;;;2.37;;
70927;SDS011;58587;53.034;18.576;2023-08-06T03:27:48;2.93;;;2.57;;
70927;SDS011;58587;53.034;18.576;2023-08-06T03:30:13;3.07;;;2.20;;
70927;SDS011;58587;53.034;18.576;2023-08-06T03:32:39;2.70;;;2.30;;
70927;SDS011;58587;53.034;18.576;2023-08-06T03:35:04;3.63;;;2.40;;
70927;SDS011;58587;53.034;18.576;2023-08-06T03:37:30;2.80;;;2.10;;
70927;SDS011;58587;53.034;18.576;2023-08-06T03:39:55;2.53;;;2.30;;
70927;SDS011;58587;53.034;18.576;2023-08-06T03:42:20;3.93;;;2.27;;
70927;SDS011;58587;53.034;18.576;2023-08-06T03:44:46;3.10;;;2.53;;
70927;SDS011;58587;53.034;18.576;2023-08-06T03:47:12;2.65;;;2.38;;
70927;SDS011;58587;53.034;18.576;2023-08-06T03:49:37;4.20;;;2.63;;
70927;SDS011;58587;53.034;18.576;2023-08-06T03:52:03;4.00;;;2.20;;
70927;SDS011;58587;53.034;18.576;2023-08-06T03:54:28;3.13;;;2.25;;
70927;SDS011;58587;53.034;18.576;2023-08-06T03:56:55;3.33;;;2.10;;
70927;SDS011;58587;53.034;18.576;2023-08-06T03:59:20;2.80;;;2.30;;
70927;SDS011;58587;53.034;18.576;2023-08-06T04:01:45;3.13;;;2.23;;
70927;SDS011;58587;53.034;18.576;2023-08-06T04:04:11;3.47;;;2.30;;
70927;SDS011;58587;53.034;18.576;2023-08-06T04:06:36;3.10;;;2.67;;
70927;SDS011;58587;53.034;18.576;2023-08-06T04:09:01;4.10;;;2.57;;
70927;SDS011;58587;53.034;18.576;2023-08-06T04:11:27;4.27;;;2.70;;
70927;SDS011;58587;53.034;18.576;2023-08-06T04:13:52;3.22;;;2.50;;
70927;SDS011;58587;53.034;18.576;2023-08-06T04:16:19;4.13;;;2.47;;
70927;SDS011;58587;53.034;18.576;2023-08-06T04:18:44;3.93;;;2.53;;
70927;SDS011;58587;53.034;18.576;2023-08-06T04:21:10;4.18;;;2.50;;
70927;SDS011;58587;53.034;18.576;2023-08-06T04:23:36;2.93;;;2.50;;
70927;SDS011;58587;53.034;18.576;2023-08-06T04:26:01;4.33;;;2.40;;
70927;SDS011;58587;53.034;18.576;2023-08-06T04:28:26;3.63;;;2.75;;
70927;SDS011;58587;53.034;18.576;2023-08-06T04:30:52;5.10;;;2.90;;
70927;SDS011;58587;53.034;18.576;2023-08-06T04:33:18;5.23;;;2.27;;
70927;SDS011;58587;53.034;18.576;2023-08-06T04:35:44;3.90;;;2.85;;
70927;SDS011;58587;53.034;18.576;2023-08-06T04:38:09;2.97;;;2.23;;
70927;SDS011;58587;53.034;18.576;2023-08-06T04:40:35;2.70;;;2.43;;
70927;SDS011;58587;53.034;18.576;2023-08-06T04:43:01;3.38;;;2.65;;
70927;SDS011;58587;53.034;18.576;2023-08-06T04:45:26;3.17;;;2.37;;
70927;SDS011;58587;53.034;18.576;2023-08-06T04:47:51;3.10;;;2.30;;
70927;SDS011;58587;53.034;18.576;2023-08-06T04:50:16;3.03;;;2.37;;
70927;SDS011;58587;53.034;18.576;2023-08-06T04:52:42;4.67;;;2.80;;
70927;SDS011;58587;53.034;18.576;2023-08-06T04:55:07;4.07;;;2.50;;
70927;SDS011;58587;53.034;18.576;2023-08-06T04:57:33;2.87;;;2.33;;
70927;SDS011;58587;53.034;18.576;2023-08-06T04:59:58;3.80;;;2.80;;
70927;SDS011;58587;53.034;18.576;2023-08-06T05:02:24;3.67;;;2.63;;
70927;SDS011;58587;53.034;18.576;2023-08-06T05:04:49;3.60;;;2.60;;
70927;SDS011;58587;53.034;18.576;2023-08-06T05:07:14;4.60;;;2.77;;
70927;SDS011;58587;53.034;18.576;2023-08-06T05:09:40;4.07;;;2.60;;
70927;SDS011;58587;53.034;18.576;2023-08-06T05:12:05;3.20;;;2.60;;
70927;SDS011;58587;53.034;18.576;2023-08-06T05:14:31;3.40;;;2.50;;
70927;SDS011;58587;53.034;18.576;2023-08-06T05:16:56;4.20;;;2.30;;
70927;SDS011;58587;53.034;18.576;2023-08-06T05:19:21;2.90;;;2.40;;
70927;SDS011;58587;53.034;18.576;2023-08-06T05:21:47;3.00;;;2.70;;
70927;SDS011;58587;53.034;18.576;2023-08-06T05:24:12;2.93;;;2.50;;
70927;SDS011;58587;53.034;18.576;2023-08-06T05:26:37;4.23;;;2.67;;
70927;SDS011;58587;53.034;18.576;2023-08-06T05:29:03;3.13;;;2.70;;
70927;SDS011;58587;53.034;18.576;2023-08-06T05:31:28;3.67;;;2.67;;
70927;SDS011;58587;53.034;18.576;2023-08-06T05:33:54;3.10;;;2.53;;
70927;SDS011;58587;53.034;18.576;2023-08-06T05:36:19;3.90;;;2.37;;
70927;SDS011;58587;53.034;18.576;2023-08-06T05:38:44;2.92;;;2.30;;
70927;SDS011;58587;53.034;18.576;2023-08-06T05:41:10;2.80;;;2.53;;
70927;SDS011;58587;53.034;18.576;2023-08-06T05:43:35;3.80;;;2.53;;
70927;SDS011;58587;53.034;18.576;2023-08-06T05:46:00;3.03;;;2.23;;
70927;SDS011;58587;53.034;18.576;2023-08-06T05:48:26;2.97;;;2.27;;
70927;SDS011;58587;53.034;18.576;2023-08-06T05:50:52;2.40;;;2.10;;
70927;SDS011;58587;53.034;18.576;2023-08-06T05:53:18;4.47;;;3.13;;
70927;SDS011;58587;53.034;18.576;2023-08-06T05:55:43;3.87;;;2.90;;
70927;SDS011;58587;53.034;18.576;2023-08-06T05:58:10;3.15;;;2.53;;
70927;SDS011;58587;53.034;18.576;2023-08-06T06:00:35;4.10;;;2.37;;
70927;SDS011;58587;53.034;18.576;2023-08-06T06:03:01;3.90;;;2.40;;
70927;SDS011;58587;53.034;18.576;2023-08-06T06:05:27;4.07;;;2.40;;
70927;SDS011;58587;53.034;18.576;2023-08-06T06:07:53;5.32;;;3.00;;
70927;SDS011;58587;53.034;18.576;2023-08-06T06:10:18;3.17;;;2.50;;
70927;SDS011;58587;53.034;18.576;2023-08-06T06:12:44;3.47;;;2.27;;
70927;SDS011;58587;53.034;18.576;2023-08-06T06:15:09;3.57;;;2.67;;
70927;SDS011;58587;53.034;18.576;2023-08-06T06:17:34;3.07;;;2.10;;
70927;SDS011;58587;53.034;18.576;2023-08-06T06:20:00;3.47;;;2.65;;
70927;SDS011;58587;53.034;18.576;2023-08-06T06:22:25;3.70;;;3.20;;
70927;SDS011;58587;53.034;18.576;2023-08-06T06:24:51;2.97;;;2.40;;
70927;SDS011;58587;53.034;18.576;2023-08-06T06:27:16;2.90;;;2.30;;
70927;SDS011;58587;53.034;18.576;2023-08-06T06:29:41;3.37;;;2.43;;
70927;SDS011;58587;53.034;18.576;2023-08-06T06:32:06;2.35;;;2.15;;
70927;SDS011;58587;53.034;18.576;2023-08-06T06:34:32;2.33;;;2.00;;
70927;SDS011;58587;53.034;18.576;2023-08-06T06:36:57;3.90;;;2.47;;
70927;SDS011;58587;53.034;18.576;2023-08-06T06:39:23;2.13;;;1.80;;
70927;SDS011;58587;53.034;18.576;2023-08-06T06:41:48;1.93;;;1.73;;
